createdAt,value
2019-02-06T00:00:43.078Z,53.10
2019-02-06T00:01:43.044Z,55.40
2019-02-06T00:02:43.006Z,55.20
2019-02-06T00:03:42.969Z,56.30
2019-02-06T00:04:42.931Z,54.90
2019-02-06T00:05:42.895Z,54.90
2019-02-06T00:06:42.892Z,55.60
2019-02-06T00:07:42.821Z,56.70
2019-02-06T00:08:42.782Z,54.80
2019-02-06T00:09:42.747Z,52.30
2019-02-06T00:10:42.727Z,54.00
2019-02-06T00:11:42.674Z,54.20
2019-02-06T00:12:42.635Z,54.80
2019-02-06T00:13:42.600Z,54.70
2019-02-06T00:14:42.583Z,55.00
2019-02-06T00:15:42.527Z,56.40
2019-02-06T00:16:42.489Z,55.80
2019-02-06T00:17:42.452Z,53.80
2019-02-06T00:18:42.415Z,53.50
2019-02-06T00:19:42.380Z,55.00
2019-02-06T00:20:42.343Z,53.00
2019-02-06T00:21:42.305Z,52.70
2019-02-06T00:22:42.271Z,53.20
2019-02-06T00:23:42.232Z,53.90
2019-02-06T00:24:42.199Z,62.80
2019-02-06T00:25:42.156Z,57.60
2019-02-06T00:26:42.120Z,51.70
2019-02-06T00:27:42.083Z,55.00
2019-02-06T00:28:42.047Z,52.10
2019-02-06T00:29:42.008Z,55.20
2019-02-06T00:30:41.973Z,52.80
2019-02-06T00:31:41.934Z,53.00
2019-02-06T00:32:41.896Z,54.80
2019-02-06T00:33:41.859Z,53.50
2019-02-06T00:34:41.823Z,55.80
2019-02-06T00:35:41.787Z,52.00
2019-02-06T00:36:41.748Z,54.40
2019-02-06T00:37:41.712Z,53.60
2019-02-06T00:38:41.675Z,53.70
2019-02-06T00:39:41.636Z,54.40
2019-02-06T00:40:41.598Z,56.10
2019-02-06T00:41:41.563Z,52.70
2019-02-06T00:42:41.526Z,56.00
2019-02-06T00:43:41.488Z,55.00
2019-02-06T00:44:41.450Z,54.90
2019-02-06T00:45:41.413Z,56.90
2019-02-06T00:46:41.375Z,57.00
2019-02-06T00:47:41.341Z,54.30
2019-02-06T00:48:41.301Z,54.70
2019-02-06T00:49:41.264Z,53.80
2019-02-06T00:50:41.227Z,53.70
2019-02-06T00:51:41.189Z,54.00
2019-02-06T00:52:41.150Z,55.90
2019-02-06T00:53:41.114Z,53.40
2019-02-06T00:54:41.077Z,55.80
2019-02-06T00:55:41.040Z,55.80
2019-02-06T00:56:41.001Z,56.40
2019-02-06T00:57:40.964Z,59.00
2019-02-06T00:58:40.928Z,54.10
2019-02-06T00:59:40.890Z,54.60
2019-02-06T01:00:40.853Z,53.40
2019-02-06T01:01:40.817Z,54.40
2019-02-06T01:02:40.777Z,57.30
2019-02-06T01:03:40.743Z,55.80
2019-02-06T01:04:40.702Z,53.20
2019-02-06T01:05:40.664Z,59.00
2019-02-06T01:06:40.627Z,59.00
2019-02-06T01:07:40.589Z,63.20
2019-02-06T01:08:40.552Z,62.10
2019-02-06T01:09:40.516Z,57.30
2019-02-06T01:10:40.479Z,51.50
2019-02-06T01:11:40.440Z,51.20
2019-02-06T01:12:40.402Z,49.80
2019-02-06T01:13:40.366Z,49.70
2019-02-06T01:14:40.328Z,48.40
2019-02-06T01:15:40.290Z,50.90
2019-02-06T01:16:40.252Z,52.30
2019-02-06T01:17:40.220Z,49.90
2019-02-06T01:18:40.178Z,52.40
2019-02-06T01:19:40.141Z,50.80
2019-02-06T01:20:40.105Z,52.10
2019-02-06T01:21:40.066Z,54.30
2019-02-06T01:22:40.146Z,53.50
2019-02-06T01:23:39.993Z,52.70
2019-02-06T01:24:39.955Z,53.30
2019-02-06T01:25:39.916Z,58.30
2019-02-06T01:26:39.879Z,61.30
2019-02-06T01:27:39.843Z,53.80
2019-02-06T01:28:39.804Z,56.50
2019-02-06T01:29:39.768Z,54.90
2019-02-06T01:30:39.729Z,61.00
2019-02-06T01:31:39.691Z,55.10
2019-02-06T01:32:39.653Z,53.50
2019-02-06T01:33:39.617Z,54.60
2019-02-06T01:34:39.582Z,62.60
2019-02-06T01:35:49.598Z,52.70
2019-02-06T01:36:39.504Z,56.10
2019-02-06T01:37:39.468Z,59.20
2019-02-06T01:38:39.429Z,53.70
2019-02-06T01:39:39.391Z,52.80
2019-02-06T01:40:39.355Z,51.10
2019-02-06T01:41:39.317Z,51.10
2019-02-06T01:42:39.279Z,53.00
2019-02-06T01:43:39.242Z,52.10
2019-02-06T01:44:39.205Z,51.10
2019-02-06T01:45:39.168Z,55.50
2019-02-06T01:46:39.128Z,54.50
2019-02-06T01:47:39.096Z,54.80
2019-02-06T01:48:39.056Z,59.90
2019-02-06T01:49:39.017Z,54.60
2019-02-06T01:50:38.979Z,53.30
2019-02-06T01:51:38.942Z,51.50
2019-02-06T01:52:38.904Z,52.10
2019-02-06T01:53:38.867Z,55.20
2019-02-06T01:54:38.831Z,52.30
2019-02-06T01:55:38.792Z,59.70
2019-02-06T01:56:38.754Z,55.30
2019-02-06T01:57:38.719Z,53.80
2019-02-06T01:58:38.680Z,52.80
2019-02-06T01:59:38.643Z,60.10
2019-02-06T02:00:38.604Z,49.20
2019-02-06T02:01:38.567Z,52.90
2019-02-06T02:02:38.529Z,52.20
2019-02-06T02:03:38.493Z,56.50
2019-02-06T02:04:38.453Z,51.50
2019-02-06T02:05:38.417Z,54.30
2019-02-06T02:06:38.383Z,50.60
2019-02-06T02:07:38.343Z,52.40
2019-02-06T02:08:38.303Z,50.10
2019-02-06T02:09:38.270Z,48.80
2019-02-06T02:10:38.229Z,49.50
2019-02-06T02:11:38.197Z,51.60
2019-02-06T02:12:38.155Z,51.80
2019-02-06T02:13:38.118Z,90.50
2019-02-06T02:14:38.083Z,68.90
2019-02-06T02:15:38.044Z,99.50
2019-02-06T02:16:38.005Z,83.50
2019-02-06T02:17:37.968Z,60.10
2019-02-06T02:18:37.934Z,52.00
2019-02-06T02:19:37.895Z,50.40
2019-02-06T02:20:37.857Z,51.10
2019-02-06T02:21:37.820Z,47.00
2019-02-06T02:22:37.785Z,52.20
2019-02-06T02:23:37.749Z,51.70
2019-02-06T02:24:37.711Z,48.30
2019-02-06T02:25:37.674Z,54.50
2019-02-06T02:26:37.636Z,49.20
2019-02-06T02:27:37.600Z,48.30
2019-02-06T02:28:37.563Z,53.70
2019-02-06T02:29:37.529Z,49.70
2019-02-06T02:30:37.490Z,47.70
2019-02-06T02:31:37.458Z,49.50
2019-02-06T02:32:37.415Z,47.50
2019-02-06T02:33:37.393Z,44.80
2019-02-06T02:34:37.343Z,46.90
2019-02-06T02:35:37.309Z,50.80
2019-02-06T02:36:37.269Z,54.70
2019-02-06T02:37:37.234Z,50.80
2019-02-06T02:38:37.200Z,45.20
2019-02-06T02:39:37.162Z,47.30
2019-02-06T02:40:37.127Z,49.20
2019-02-06T02:41:37.088Z,49.30
2019-02-06T02:42:37.052Z,50.00
2019-02-06T02:43:37.016Z,55.80
2019-02-06T02:44:36.980Z,55.10
2019-02-06T02:45:36.945Z,46.10
2019-02-06T02:46:36.908Z,45.70
2019-02-06T02:47:36.872Z,49.90
2019-02-06T02:48:36.835Z,51.90
2019-02-06T02:49:36.801Z,44.70
2019-02-06T02:50:36.761Z,45.30
2019-02-06T02:51:36.728Z,48.40
2019-02-06T02:52:36.731Z,85.80
2019-02-06T02:53:36.652Z,55.50
2019-02-06T02:54:36.623Z,52.00
2019-02-06T02:55:36.583Z,47.50
2019-02-06T02:56:36.544Z,47.90
2019-02-06T02:57:36.508Z,48.00
2019-02-06T02:58:36.472Z,49.10
2019-02-06T02:59:36.436Z,45.70
2019-02-06T03:00:36.401Z,45.70
2019-02-06T03:01:36.364Z,43.30
2019-02-06T03:02:36.328Z,42.20
2019-02-06T03:03:36.293Z,46.10
2019-02-06T03:04:36.255Z,42.40
2019-02-06T03:05:36.222Z,41.80
2019-02-06T03:06:36.185Z,44.90
2019-02-06T03:07:36.149Z,44.90
2019-02-06T03:08:36.112Z,45.70
2019-02-06T03:09:36.076Z,47.70
2019-02-06T03:10:36.040Z,48.30
2019-02-06T03:11:36.003Z,47.40
2019-02-06T03:12:35.968Z,47.30
2019-02-06T03:13:35.930Z,44.60
2019-02-06T03:14:35.907Z,47.40
2019-02-06T03:15:35.859Z,49.10
2019-02-06T03:16:35.824Z,46.20
2019-02-06T03:17:35.790Z,47.90
2019-02-06T03:18:35.752Z,49.20
2019-02-06T03:19:35.715Z,50.10
2019-02-06T03:20:35.679Z,46.90
2019-02-06T03:21:35.644Z,48.40
2019-02-06T03:22:35.607Z,48.60
2019-02-06T03:23:35.572Z,48.90
2019-02-06T03:24:35.534Z,48.40
2019-02-06T03:25:35.499Z,49.90
2019-02-06T03:26:35.465Z,49.60
2019-02-06T03:27:35.427Z,49.60
2019-02-06T03:28:35.391Z,48.60
2019-02-06T03:29:35.369Z,49.90
2019-02-06T03:30:35.362Z,49.10
2019-02-06T03:31:35.294Z,49.00
2019-02-06T03:32:35.331Z,47.80
2019-02-06T03:33:35.213Z,47.30
2019-02-06T03:34:35.175Z,49.00
2019-02-06T03:35:35.143Z,47.80
2019-02-06T03:36:40.514Z,50.90
2019-02-06T03:37:35.073Z,48.00
2019-02-06T03:38:35.035Z,45.40
2019-02-06T03:39:34.997Z,43.60
2019-02-06T03:40:34.962Z,45.10
2019-02-06T03:41:34.929Z,42.10
2019-02-06T03:42:34.890Z,42.30
2019-02-06T03:43:34.855Z,44.00
2019-02-06T03:44:34.818Z,42.50
2019-02-06T03:45:34.781Z,43.50
2019-02-06T03:46:34.746Z,44.80
2019-02-06T03:47:34.711Z,43.30
2019-02-06T03:48:34.675Z,44.30
2019-02-06T03:49:34.638Z,44.00
2019-02-06T03:50:34.603Z,42.60
2019-02-06T03:51:34.568Z,41.90
2019-02-06T03:52:34.530Z,42.30
2019-02-06T03:53:34.495Z,44.10
2019-02-06T03:54:34.462Z,44.40
2019-02-06T03:55:34.425Z,43.10
2019-02-06T03:56:34.388Z,43.40
2019-02-06T03:57:34.353Z,41.10
2019-02-06T03:58:34.317Z,42.80
2019-02-06T03:59:34.285Z,41.40
2019-02-06T04:00:34.247Z,41.60
2019-02-06T04:01:34.208Z,43.70
2019-02-06T04:02:34.172Z,43.50
2019-02-06T04:03:34.137Z,43.20
2019-02-06T04:04:34.100Z,43.40
2019-02-06T04:05:34.069Z,43.50
2019-02-06T04:06:34.030Z,43.80
2019-02-06T04:07:33.995Z,43.70
2019-02-06T04:08:33.956Z,44.50
2019-02-06T04:09:33.922Z,43.50
2019-02-06T04:10:33.885Z,41.80
2019-02-06T04:11:33.918Z,41.30
2019-02-06T04:12:33.816Z,40.40
2019-02-06T04:13:33.780Z,43.50
2019-02-06T04:14:33.744Z,42.40
2019-02-06T04:15:33.707Z,42.10
2019-02-06T04:16:33.670Z,41.00
2019-02-06T04:17:33.639Z,42.80
2019-02-06T04:18:33.601Z,41.10
2019-02-06T04:19:33.565Z,41.50
2019-02-06T04:20:33.528Z,41.40
2019-02-06T04:21:33.493Z,41.40
2019-02-06T04:22:33.456Z,43.80
2019-02-06T04:23:33.422Z,43.00
2019-02-06T04:24:33.386Z,41.70
2019-02-06T04:25:33.350Z,42.40
2019-02-06T04:26:33.318Z,41.90
2019-02-06T04:27:33.280Z,40.50
2019-02-06T04:28:33.243Z,41.10
2019-02-06T04:29:33.209Z,40.20
2019-02-06T04:30:33.172Z,40.30
2019-02-06T04:31:33.147Z,40.70
2019-02-06T04:32:33.099Z,40.80
2019-02-06T04:33:33.065Z,41.10
2019-02-06T04:34:33.030Z,40.50
2019-02-06T04:35:32.993Z,40.10
2019-02-06T04:36:32.958Z,39.70
2019-02-06T04:37:32.922Z,39.00
2019-02-06T04:38:32.887Z,41.60
2019-02-06T04:39:32.851Z,40.00
2019-02-06T04:40:32.821Z,42.90
2019-02-06T04:41:32.779Z,41.00
2019-02-06T04:42:32.744Z,42.20
2019-02-06T04:43:32.709Z,40.70
2019-02-06T04:44:32.674Z,41.00
2019-02-06T04:45:32.637Z,42.70
2019-02-06T04:46:32.604Z,40.80
2019-02-06T04:47:32.566Z,40.50
2019-02-06T04:48:32.529Z,41.60
2019-02-06T04:49:32.499Z,41.50
2019-02-06T04:50:32.458Z,43.00
2019-02-06T04:51:32.424Z,43.90
2019-02-06T04:52:32.391Z,45.10
2019-02-06T04:53:32.351Z,44.60
2019-02-06T04:54:32.314Z,43.20
2019-02-06T04:55:32.281Z,43.30
2019-02-06T04:56:32.243Z,45.90
2019-02-06T04:57:32.209Z,44.50
2019-02-06T04:58:32.173Z,45.10
2019-02-06T04:59:32.193Z,45.20
2019-02-06T05:00:32.101Z,45.20
2019-02-06T05:01:32.068Z,46.30
2019-02-06T05:02:32.028Z,55.90
2019-02-06T05:03:31.994Z,50.00
2019-02-06T05:04:31.957Z,46.40
2019-02-06T05:05:31.922Z,44.30
2019-02-06T05:06:31.886Z,46.60
2019-02-06T05:07:31.850Z,45.60
2019-02-06T05:08:31.814Z,48.10
2019-02-06T05:09:31.777Z,49.80
2019-02-06T05:10:31.742Z,48.20
2019-02-06T05:11:31.707Z,45.50
2019-02-06T05:12:31.670Z,44.70
2019-02-06T05:13:31.634Z,46.10
2019-02-06T05:14:31.598Z,53.70
2019-02-06T05:15:31.564Z,46.90
2019-02-06T05:16:31.527Z,47.20
2019-02-06T05:17:31.490Z,45.50
2019-02-06T05:18:31.454Z,47.40
2019-02-06T05:19:31.425Z,50.20
2019-02-06T05:20:31.382Z,48.20
2019-02-06T05:21:31.347Z,46.50
2019-02-06T05:22:31.314Z,46.40
2019-02-06T05:23:31.276Z,44.10
2019-02-06T05:24:31.241Z,46.70
2019-02-06T05:25:31.203Z,46.40
2019-02-06T05:26:31.167Z,46.10
2019-02-06T05:27:31.132Z,44.90
2019-02-06T05:28:31.097Z,44.00
2019-02-06T05:29:31.059Z,45.90
2019-02-06T05:30:31.024Z,45.90
2019-02-06T05:31:30.989Z,46.60
2019-02-06T05:32:30.952Z,45.40
2019-02-06T05:33:30.915Z,44.80
2019-02-06T05:34:30.880Z,44.50
2019-02-06T05:35:30.845Z,43.30
2019-02-06T05:36:30.809Z,44.50
2019-02-06T05:37:32.354Z,45.70
2019-02-06T05:38:30.739Z,44.50
2019-02-06T05:39:30.700Z,43.40
2019-02-06T05:40:30.665Z,45.10
2019-02-06T05:41:30.628Z,45.60
2019-02-06T05:42:30.592Z,45.00
2019-02-06T05:43:30.558Z,44.80
2019-02-06T05:44:30.519Z,44.80
2019-02-06T05:45:30.486Z,45.00
2019-02-06T05:46:30.449Z,45.10
2019-02-06T05:47:30.437Z,42.10
2019-02-06T05:48:30.376Z,44.50
2019-02-06T05:49:30.339Z,44.90
2019-02-06T05:50:30.302Z,44.80
2019-02-06T05:51:30.266Z,44.90
2019-02-06T05:52:30.234Z,42.10
2019-02-06T05:53:30.193Z,44.40
2019-02-06T05:54:30.159Z,43.90
2019-02-06T05:55:30.122Z,44.70
2019-02-06T05:56:30.084Z,45.30
2019-02-06T05:57:30.051Z,45.10
2019-02-06T05:58:30.012Z,45.90
2019-02-06T05:59:29.976Z,45.00
2019-02-06T06:00:29.940Z,45.20
2019-02-06T06:01:29.902Z,45.70
2019-02-06T06:02:29.868Z,45.30
2019-02-06T06:03:29.832Z,43.00
2019-02-06T06:04:29.793Z,45.10
2019-02-06T06:05:29.757Z,45.20
2019-02-06T06:06:29.724Z,45.70
2019-02-06T06:07:29.686Z,42.90
2019-02-06T06:08:29.647Z,42.40
2019-02-06T06:09:29.615Z,44.00
2019-02-06T06:10:29.577Z,43.60
2019-02-06T06:11:29.547Z,44.40
2019-02-06T06:12:29.503Z,42.20
2019-02-06T06:13:29.517Z,42.40
2019-02-06T06:14:29.429Z,42.50
2019-02-06T06:15:29.391Z,41.50
2019-02-06T06:16:29.355Z,44.20
2019-02-06T06:17:29.319Z,44.70
2019-02-06T06:18:29.282Z,44.10
2019-02-06T06:19:29.246Z,45.40
2019-02-06T06:20:29.209Z,45.00
2019-02-06T06:21:29.172Z,46.80
2019-02-06T06:22:29.136Z,43.80
2019-02-06T06:23:29.099Z,44.50
2019-02-06T06:24:29.065Z,44.10
2019-02-06T06:25:29.033Z,43.60
2019-02-06T06:26:28.990Z,43.60
2019-02-06T06:27:28.983Z,44.60
2019-02-06T06:28:29.218Z,43.30
2019-02-06T06:29:28.891Z,43.90
2019-02-06T06:30:28.844Z,43.70
2019-02-06T06:31:28.810Z,44.50
2019-02-06T06:32:31.833Z,45.90
2019-02-06T06:33:28.733Z,44.80
2019-02-06T06:34:28.696Z,45.00
2019-02-06T06:35:28.660Z,45.10
2019-02-06T06:36:28.625Z,43.00
2019-02-06T06:37:28.588Z,44.80
2019-02-06T06:38:28.551Z,41.90
2019-02-06T06:39:28.514Z,45.50
2019-02-06T06:40:28.476Z,43.90
2019-02-06T06:41:28.440Z,44.70
2019-02-06T06:42:28.404Z,45.10
2019-02-06T06:43:28.373Z,45.40
2019-02-06T06:44:28.331Z,47.30
2019-02-06T06:45:28.293Z,45.00
2019-02-06T06:46:28.257Z,46.70
2019-02-06T06:47:28.221Z,45.30
2019-02-06T06:48:28.184Z,46.90
2019-02-06T06:49:28.147Z,46.10
2019-02-06T06:50:28.110Z,47.60
2019-02-06T06:51:28.075Z,47.70
2019-02-06T06:52:28.038Z,47.10
2019-02-06T06:53:28.001Z,46.50
2019-02-06T06:54:27.964Z,47.30
2019-02-06T06:55:27.927Z,47.70
2019-02-06T06:56:27.890Z,47.20
2019-02-06T06:57:27.853Z,52.00
2019-02-06T06:58:27.819Z,48.60
2019-02-06T06:59:27.803Z,47.00
2019-02-06T07:00:27.743Z,45.80
2019-02-06T07:01:27.710Z,44.40
2019-02-06T07:02:27.669Z,46.30
2019-02-06T07:03:27.642Z,47.90
2019-02-06T07:04:27.597Z,45.20
2019-02-06T07:05:27.560Z,45.30
2019-02-06T07:06:27.524Z,45.80
2019-02-06T07:07:27.488Z,44.20
2019-02-06T07:08:27.450Z,44.70
2019-02-06T07:09:27.420Z,42.10
2019-02-06T07:10:27.385Z,44.50
2019-02-06T07:11:27.340Z,41.90
2019-02-06T07:12:27.303Z,43.90
2019-02-06T07:13:27.266Z,42.70
2019-02-06T07:14:27.230Z,42.40
2019-02-06T07:15:27.193Z,41.80
2019-02-06T07:16:27.156Z,43.80
2019-02-06T07:17:27.123Z,42.30
2019-02-06T07:18:27.084Z,42.50
2019-02-06T07:19:27.047Z,39.90
2019-02-06T07:20:27.032Z,37.90
2019-02-06T07:21:26.974Z,40.00
2019-02-06T07:22:26.939Z,39.10
2019-02-06T07:23:26.902Z,38.80
2019-02-06T07:24:26.866Z,37.50
2019-02-06T07:25:26.830Z,37.80
2019-02-06T07:26:26.792Z,39.20
2019-02-06T07:27:26.757Z,37.90
2019-02-06T07:28:26.719Z,38.30
2019-02-06T07:29:26.686Z,36.00
2019-02-06T07:30:26.647Z,37.60
2019-02-06T07:31:26.610Z,36.80
2019-02-06T07:32:26.573Z,35.30
2019-02-06T07:33:26.538Z,34.30
2019-02-06T07:34:26.501Z,35.30
2019-02-06T07:35:26.468Z,35.10
2019-02-06T07:36:26.430Z,35.60
2019-02-06T07:37:26.393Z,35.30
2019-02-06T07:38:26.358Z,34.10
2019-02-06T07:39:26.322Z,32.80
2019-02-06T07:40:26.286Z,36.20
2019-02-06T07:41:26.252Z,34.30
2019-02-06T07:42:26.214Z,35.20
2019-02-06T07:43:26.178Z,34.10
2019-02-06T07:44:26.143Z,34.60
2019-02-06T07:45:26.105Z,33.30
2019-02-06T07:46:26.078Z,34.20
2019-02-06T07:47:26.045Z,34.60
2019-02-06T07:48:26.000Z,34.50
2019-02-06T07:49:25.963Z,33.40
2019-02-06T07:50:25.927Z,32.30
2019-02-06T07:51:25.891Z,33.30
2019-02-06T07:52:25.857Z,34.70
2019-02-06T07:53:25.819Z,34.20
2019-02-06T07:54:25.879Z,33.70
2019-02-06T07:55:25.748Z,34.50
2019-02-06T07:56:25.713Z,33.30
2019-02-06T07:57:25.677Z,32.20
2019-02-06T07:58:25.643Z,33.40
2019-02-06T07:59:25.609Z,34.00
2019-02-06T08:00:25.571Z,33.50
2019-02-06T08:01:25.536Z,32.60
2019-02-06T08:02:25.499Z,34.40
2019-02-06T08:03:25.464Z,32.50
2019-02-06T08:04:25.575Z,32.10
2019-02-06T08:05:25.396Z,33.00
2019-02-06T08:06:25.359Z,32.10
2019-02-06T08:07:25.322Z,33.20
2019-02-06T08:08:35.649Z,33.70
2019-02-06T08:09:25.305Z,32.70
2019-02-06T08:10:25.220Z,39.10
2019-02-06T08:11:25.181Z,34.50
2019-02-06T08:12:25.145Z,35.00
2019-02-06T08:13:25.109Z,33.70
2019-02-06T08:14:25.075Z,32.70
2019-02-06T08:15:25.038Z,32.30
2019-02-06T08:16:25.001Z,60.10
2019-02-06T08:17:24.966Z,51.00
2019-02-06T08:18:24.933Z,35.30
2019-02-06T08:19:24.896Z,32.20
2019-02-06T08:20:24.861Z,33.60
2019-02-06T08:21:24.825Z,31.90
2019-02-06T08:22:24.794Z,31.60
2019-02-06T08:23:24.754Z,29.90
2019-02-06T08:24:24.718Z,31.40
2019-02-06T08:25:24.687Z,32.20
2019-02-06T08:26:24.648Z,31.70
2019-02-06T08:27:26.450Z,31.20
2019-02-06T08:28:24.578Z,30.80
2019-02-06T08:29:24.543Z,30.00
2019-02-06T08:30:24.508Z,31.50
2019-02-06T08:31:24.471Z,31.40
2019-02-06T08:32:24.435Z,32.00
2019-02-06T08:33:24.401Z,30.90
2019-02-06T08:34:24.368Z,30.40
2019-02-06T08:35:24.335Z,28.60
2019-02-06T08:36:24.297Z,30.30
2019-02-06T08:37:24.262Z,30.30
2019-02-06T08:38:24.227Z,29.90
2019-02-06T08:39:24.194Z,31.90
2019-02-06T08:40:24.158Z,30.70
2019-02-06T08:41:24.123Z,30.80
2019-02-06T08:42:24.090Z,29.30
2019-02-06T08:43:24.054Z,30.20
2019-02-06T08:44:24.020Z,31.90
2019-02-06T08:45:23.990Z,30.10
2019-02-06T08:46:23.951Z,30.60
2019-02-06T08:47:23.916Z,29.20
2019-02-06T08:48:23.881Z,26.30
2019-02-06T08:49:23.847Z,30.10
2019-02-06T08:50:23.814Z,28.70
2019-02-06T08:51:23.778Z,30.50
2019-02-06T08:52:23.742Z,28.20
2019-02-06T08:53:23.708Z,28.40
2019-02-06T08:54:23.675Z,29.10
2019-02-06T08:55:23.640Z,26.70
2019-02-06T08:56:23.604Z,28.00
2019-02-06T08:57:23.570Z,28.60
2019-02-06T08:58:23.537Z,27.00
2019-02-06T08:59:23.501Z,26.90
2019-02-06T09:00:23.467Z,27.40
2019-02-06T09:01:23.434Z,27.90
2019-02-06T09:02:23.398Z,28.10
2019-02-06T09:03:23.365Z,27.30
2019-02-06T09:04:23.335Z,23.50
2019-02-06T09:05:23.295Z,25.60
2019-02-06T09:06:23.262Z,26.40
2019-02-06T09:07:23.228Z,25.40
2019-02-06T09:08:23.191Z,24.90
2019-02-06T09:09:23.160Z,24.80
2019-02-06T09:10:23.125Z,26.50
2019-02-06T09:11:23.092Z,26.60
2019-02-06T09:12:23.056Z,25.30
2019-02-06T09:13:23.022Z,25.10
2019-02-06T09:14:22.989Z,25.60
2019-02-06T09:15:22.955Z,25.40
2019-02-06T09:16:22.931Z,24.60
2019-02-06T09:17:22.887Z,24.10
2019-02-06T09:18:22.854Z,24.20
2019-02-06T09:19:22.820Z,24.80
2019-02-06T09:20:22.788Z,24.20
2019-02-06T09:21:22.751Z,24.20
2019-02-06T09:22:22.719Z,25.00
2019-02-06T09:23:22.712Z,25.40
2019-02-06T09:24:22.684Z,25.00
2019-02-06T09:25:22.617Z,25.10
2019-02-06T09:26:22.627Z,25.20
2019-02-06T09:27:22.551Z,25.30
2019-02-06T09:28:22.518Z,25.60
2019-02-06T09:29:22.485Z,25.30
2019-02-06T09:30:22.452Z,24.90
2019-02-06T09:31:22.456Z,21.40
2019-02-06T09:32:22.383Z,24.40
2019-02-06T09:33:22.351Z,24.70
2019-02-06T09:34:22.346Z,24.20
2019-02-06T09:35:22.283Z,24.90
2019-02-06T09:36:22.249Z,24.10
2019-02-06T09:37:22.215Z,24.10
2019-02-06T09:38:22.183Z,23.60
2019-02-06T09:39:22.151Z,23.70
2019-02-06T09:40:22.116Z,23.40
2019-02-06T09:41:22.083Z,23.50
2019-02-06T09:42:22.048Z,22.90
2019-02-06T09:43:22.015Z,23.20
2019-02-06T09:44:21.981Z,23.40
2019-02-06T09:45:21.947Z,21.80
2019-02-06T09:46:21.912Z,22.80
2019-02-06T09:47:21.880Z,22.60
2019-02-06T09:48:21.842Z,22.20
2019-02-06T09:49:21.810Z,23.80
2019-02-06T09:50:21.806Z,23.10
2019-02-06T09:51:21.744Z,22.90
2019-02-06T09:52:21.708Z,24.40
2019-02-06T09:53:21.675Z,22.30
2019-02-06T09:54:21.641Z,23.50
2019-02-06T09:55:21.608Z,22.70
2019-02-06T09:56:21.573Z,21.80
2019-02-06T09:57:21.542Z,21.30
2019-02-06T09:58:21.507Z,22.90
2019-02-06T09:59:21.474Z,22.00
2019-02-06T10:00:21.437Z,22.90
2019-02-06T10:01:21.716Z,21.10
2019-02-06T10:02:21.371Z,20.60
2019-02-06T10:03:21.336Z,22.30
2019-02-06T10:04:21.303Z,23.50
2019-02-06T10:05:21.268Z,22.30
2019-02-06T10:06:21.235Z,23.70
2019-02-06T10:07:21.201Z,23.60
2019-02-06T10:08:21.167Z,23.60
2019-02-06T10:09:22.945Z,24.30
2019-02-06T10:10:21.099Z,23.90
2019-02-06T10:11:21.066Z,23.20
2019-02-06T10:12:21.032Z,23.40
2019-02-06T10:13:20.997Z,23.90
2019-02-06T10:14:20.974Z,24.40
2019-02-06T10:15:20.929Z,22.90
2019-02-06T10:16:20.895Z,22.40
2019-02-06T10:17:20.861Z,23.40
2019-02-06T10:18:20.828Z,24.30
2019-02-06T10:19:20.795Z,24.70
2019-02-06T10:20:20.759Z,24.30
2019-02-06T10:21:20.731Z,24.70
2019-02-06T10:22:20.692Z,24.70
2019-02-06T10:23:20.659Z,24.40
2019-02-06T10:24:20.625Z,23.50
2019-02-06T10:25:20.590Z,22.90
2019-02-06T10:26:20.558Z,25.00
2019-02-06T10:27:20.524Z,24.10
2019-02-06T10:28:20.489Z,24.80
2019-02-06T10:29:20.456Z,26.00
2019-02-06T10:30:20.420Z,22.60
2019-02-06T10:31:20.388Z,25.10
2019-02-06T10:32:20.352Z,24.90
2019-02-06T10:33:20.352Z,24.10
2019-02-06T10:34:20.347Z,24.70
2019-02-06T10:35:20.252Z,24.90
2019-02-06T10:36:20.219Z,23.60
2019-02-06T10:37:20.182Z,23.70
2019-02-06T10:38:20.150Z,26.10
2019-02-06T10:39:20.122Z,24.70
2019-02-06T10:40:20.080Z,23.70
2019-02-06T10:41:20.047Z,23.40
2019-02-06T10:42:20.013Z,23.70
2019-02-06T10:43:31.305Z,24.10
2019-02-06T10:44:19.945Z,25.30
2019-02-06T10:45:21.035Z,24.40
2019-02-06T10:46:19.883Z,24.10
2019-02-06T10:47:19.845Z,23.80
2019-02-06T10:48:19.811Z,23.20
2019-02-06T10:49:19.777Z,23.10
2019-02-06T10:50:19.745Z,23.90
2019-02-06T10:51:19.710Z,24.60
2019-02-06T10:52:19.677Z,24.70
2019-02-06T10:53:19.642Z,23.00
2019-02-06T10:54:19.607Z,25.00
2019-02-06T10:55:19.575Z,24.40
2019-02-06T10:56:19.540Z,24.00
2019-02-06T10:57:19.506Z,24.10
2019-02-06T10:58:19.472Z,24.90
2019-02-06T10:59:19.443Z,23.80
2019-02-06T11:00:19.406Z,25.10
2019-02-06T11:01:19.371Z,23.20
2019-02-06T11:02:19.339Z,24.40
2019-02-06T11:03:19.308Z,23.50
2019-02-06T11:04:19.271Z,22.80
2019-02-06T11:05:19.237Z,24.70
2019-02-06T11:06:19.205Z,23.90
2019-02-06T11:07:19.172Z,23.90
2019-02-06T11:08:19.139Z,25.60
2019-02-06T11:09:19.104Z,22.50
2019-02-06T11:10:19.072Z,23.70
2019-02-06T11:11:19.042Z,23.20
2019-02-06T11:12:19.004Z,23.80
2019-02-06T11:13:18.970Z,24.60
2019-02-06T11:14:18.939Z,24.20
2019-02-06T11:15:18.904Z,23.40
2019-02-06T11:16:18.870Z,23.70
2019-02-06T11:17:18.837Z,24.20
2019-02-06T11:18:18.806Z,24.70
2019-02-06T11:19:18.773Z,23.50
2019-02-06T11:20:18.738Z,24.60
2019-02-06T11:21:18.704Z,25.00
2019-02-06T11:22:18.671Z,24.00
2019-02-06T11:23:18.638Z,24.70
2019-02-06T11:24:18.604Z,23.90
2019-02-06T11:25:18.572Z,23.60
2019-02-06T11:26:18.539Z,24.20
2019-02-06T11:27:18.507Z,23.90
2019-02-06T11:28:18.472Z,23.40
2019-02-06T11:29:18.438Z,24.30
2019-02-06T11:30:18.408Z,24.10
2019-02-06T11:31:18.375Z,24.00
2019-02-06T11:32:18.341Z,23.80
2019-02-06T11:33:18.305Z,23.90
2019-02-06T11:34:18.273Z,23.20
2019-02-06T11:35:18.240Z,22.80
2019-02-06T11:36:24.286Z,24.30
2019-02-06T11:37:18.173Z,24.20
2019-02-06T11:38:18.140Z,23.40
2019-02-06T11:39:18.106Z,24.70
2019-02-06T11:40:18.075Z,23.70
2019-02-06T11:41:18.046Z,23.60
2019-02-06T11:42:18.012Z,25.80
2019-02-06T11:43:17.974Z,29.70
2019-02-06T11:44:17.942Z,27.20
2019-02-06T11:45:17.909Z,35.00
2019-02-06T11:46:17.875Z,30.80
2019-02-06T11:47:17.842Z,27.60
2019-02-06T11:48:17.809Z,34.10
2019-02-06T11:49:17.775Z,31.80
2019-02-06T11:50:17.743Z,34.20
2019-02-06T11:51:17.711Z,32.00
2019-02-06T11:52:17.676Z,29.90
2019-02-06T11:53:17.646Z,26.90
2019-02-06T11:54:17.611Z,30.90
2019-02-06T11:55:17.580Z,29.90
2019-02-06T11:56:17.549Z,30.80
2019-02-06T11:57:17.514Z,28.50
2019-02-06T11:58:17.480Z,23.80
2019-02-06T11:59:17.447Z,23.00
2019-02-06T12:00:17.413Z,23.10
2019-02-06T12:01:17.380Z,24.50
2019-02-06T12:02:17.347Z,25.40
2019-02-06T12:03:17.315Z,27.10
2019-02-06T12:04:17.281Z,25.80
2019-02-06T12:05:17.249Z,23.60
2019-02-06T12:06:17.217Z,23.60
2019-02-06T12:07:17.185Z,23.00
2019-02-06T12:08:17.151Z,23.30
2019-02-06T12:09:17.119Z,24.90
2019-02-06T12:10:17.092Z,24.20
2019-02-06T12:11:17.052Z,22.10
2019-02-06T12:12:17.019Z,19.90
2019-02-06T12:13:16.987Z,22.10
2019-02-06T12:14:16.956Z,22.30
2019-02-06T12:15:16.922Z,22.30
2019-02-06T12:16:16.913Z,21.60
2019-02-06T12:17:16.855Z,21.40
2019-02-06T12:18:16.823Z,21.80
2019-02-06T12:19:16.790Z,21.60
2019-02-06T12:20:16.759Z,22.80
2019-02-06T12:21:18.082Z,20.50
2019-02-06T12:22:16.692Z,22.40
2019-02-06T12:23:16.663Z,21.60
2019-02-06T12:24:16.628Z,23.50
2019-02-06T12:25:16.595Z,22.00
2019-02-06T12:26:16.563Z,21.20
2019-02-06T12:27:16.532Z,22.30
2019-02-06T12:28:16.499Z,20.30
2019-02-06T12:29:16.467Z,20.00
2019-02-06T12:30:16.437Z,20.50
2019-02-06T12:31:16.403Z,19.20
2019-02-06T12:32:16.383Z,19.40
2019-02-06T12:33:16.337Z,18.50
2019-02-06T12:34:16.308Z,19.30
2019-02-06T12:35:16.273Z,20.50
2019-02-06T12:36:16.241Z,18.80
2019-02-06T12:37:16.209Z,19.10
2019-02-06T12:38:16.177Z,20.20
2019-02-06T12:39:16.145Z,19.30
2019-02-06T12:40:21.609Z,18.70
2019-02-06T12:41:16.079Z,19.50
2019-02-06T12:42:16.049Z,18.60
2019-02-06T12:43:16.021Z,20.00
2019-02-06T12:44:15.983Z,19.60
2019-02-06T12:45:15.954Z,19.20
2019-02-06T12:46:15.920Z,18.40
2019-02-06T12:47:15.889Z,20.70
2019-02-06T12:48:15.855Z,20.00
2019-02-06T12:49:15.826Z,18.70
2019-02-06T12:50:15.791Z,19.70
2019-02-06T12:51:15.773Z,19.00
2019-02-06T12:52:15.728Z,19.20